createdAt,value
2023-03-22T00:00:01.251Z,0
2023-03-22T00:15:24.532Z,0
2023-03-22T00:30:47.841Z,0
2023-03-22T00:46:11.138Z,0
2023-03-22T01:01:34.444Z,0
2023-03-22T01:16:57.739Z,0
2023-03-22T01:32:21.048Z,0
2023-03-22T01:47:44.339Z,0
2023-03-22T02:03:07.650Z,0
2023-03-22T02:18:30.943Z,0
2023-03-22T02:33:54.256Z,0
2023-03-22T02:49:17.562Z,0
2023-03-22T03:04:39.861Z,0
2023-03-22T03:20:03.169Z,0
2023-03-22T03:35:26.472Z,0
2023-03-22T03:50:49.780Z,0
2023-03-22T04:06:13.062Z,0
2023-03-22T04:21:36.377Z,0
2023-03-22T04:36:59.671Z,0
2023-03-22T04:52:22.937Z,0
2023-03-22T05:07:46.189Z,0
2023-03-22T05:23:09.438Z,0
2023-03-22T05:38:32.698Z,5
2023-03-22T05:53:55.959Z,11
2023-03-22T06:09:19.218Z,11
2023-03-22T06:24:41.492Z,16
2023-03-22T06:40:04.761Z,22
2023-03-22T06:55:28.018Z,22
2023-03-22T07:10:51.280Z,39
2023-03-22T07:26:14.521Z,39
2023-03-22T07:41:37.780Z,61
2023-03-22T07:57:01.037Z,73
2023-03-22T08:12:24.297Z,73
2023-03-22T08:27:47.552Z,90
2023-03-22T08:43:10.817Z,73
2023-03-22T08:58:34.062Z,78
2023-03-22T09:13:57.324Z,84
2023-03-22T09:29:20.578Z,95
2023-03-22T09:44:42.856Z,112
2023-03-22T10:00:06.109Z,129
2023-03-22T10:15:29.374Z,135
2023-03-22T10:16:52.776Z,163
2023-03-22T10:18:16.172Z,84
2023-03-22T10:19:39.590Z,73
2023-03-22T10:21:02.995Z,84
2023-03-22T10:22:26.411Z,73
2023-03-22T10:23:49.820Z,95
2023-03-22T10:25:13.224Z,106
2023-03-22T10:26:36.629Z,129
2023-03-22T10:28:00.049Z,112
2023-03-22T10:29:23.440Z,106
2023-03-22T10:30:45.878Z,90
2023-03-22T10:32:09.280Z,140
2023-03-22T10:33:32.684Z,157
2023-03-22T10:34:56.103Z,106
2023-03-22T10:36:19.492Z,129
2023-03-22T10:37:42.915Z,146
2023-03-22T10:39:05.333Z,112
2023-03-22T10:40:28.751Z,84
2023-03-22T10:41:52.145Z,90
2023-03-22T10:43:15.564Z,129
2023-03-22T10:44:38.968Z,675
2023-03-22T10:46:02.379Z,686
2023-03-22T10:47:25.779Z,151
2023-03-22T10:48:49.185Z,253
2023-03-22T10:50:12.604Z,388
2023-03-22T10:51:36.014Z,416
2023-03-22T10:52:59.421Z,472
2023-03-22T10:54:22.837Z,601
2023-03-22T10:55:46.232Z,759
2023-03-22T10:57:08.652Z,815
2023-03-22T10:58:32.061Z,686
2023-03-22T10:59:55.480Z,416
2023-03-22T11:01:18.890Z,556
2023-03-22T11:02:42.295Z,759
2023-03-22T11:04:05.699Z,517
2023-03-22T11:05:29.119Z,534
2023-03-22T11:06:52.520Z,489
2023-03-22T11:08:15.924Z,483
2023-03-22T11:09:39.337Z,506
2023-03-22T11:11:02.746Z,433
2023-03-22T11:12:26.138Z,388
2023-03-22T11:13:49.552Z,376
2023-03-22T11:15:11.977Z,624
2023-03-22T11:16:35.386Z,196
2023-03-22T11:17:58.797Z,163
2023-03-22T11:19:22.210Z,680
2023-03-22T11:20:45.600Z,658
2023-03-22T11:22:09.017Z,500
2023-03-22T11:23:32.425Z,624
2023-03-22T11:24:55.842Z,315
2023-03-22T11:26:19.241Z,427
2023-03-22T11:27:42.645Z,562
2023-03-22T11:29:06.051Z,523
2023-03-22T11:30:29.454Z,534
2023-03-22T11:31:52.000Z,534
2023-03-22T11:33:15.289Z,551
2023-03-22T11:34:38.709Z,495
2023-03-22T11:36:02.117Z,247
2023-03-22T11:37:25.515Z,213
2023-03-22T11:38:48.933Z,191
2023-03-22T11:40:12.348Z,281
2023-03-22T11:41:35.742Z,405
2023-03-22T11:42:59.146Z,208
2023-03-22T11:44:22.559Z,191
2023-03-22T11:45:45.960Z,146
2023-03-22T11:47:09.375Z,157
2023-03-22T11:48:32.773Z,202
2023-03-22T11:49:56.187Z,230
2023-03-22T11:51:18.606Z,208
2023-03-22T11:52:42.016Z,168
2023-03-22T11:54:05.421Z,163
2023-03-22T11:55:28.843Z,163
2023-03-22T11:56:52.243Z,168
2023-03-22T11:58:15.655Z,163
2023-03-22T11:59:39.073Z,191
2023-03-22T12:01:02.481Z,264
2023-03-22T12:02:25.873Z,371
2023-03-22T12:03:49.292Z,478
2023-03-22T12:05:12.700Z,742
2023-03-22T12:06:36.110Z,849
2023-03-22T12:07:59.516Z,523
2023-03-22T12:09:21.937Z,444
2023-03-22T12:10:45.345Z,658
2023-03-22T12:12:08.757Z,371
2023-03-22T12:13:32.181Z,270
2023-03-22T12:14:55.583Z,225
2023-03-22T12:16:18.981Z,196
2023-03-22T12:17:42.407Z,196
2023-03-22T12:19:05.807Z,348
2023-03-22T12:20:29.204Z,438
2023-03-22T12:21:52.619Z,545
2023-03-22T12:23:16.036Z,399
2023-03-22T12:24:39.438Z,461
2023-03-22T12:26:02.847Z,438
2023-03-22T12:27:25.263Z,511
2023-03-22T12:28:48.679Z,956
2023-03-22T12:30:12.083Z,905
2023-03-22T12:31:35.497Z,1029
2023-03-22T12:32:58.902Z,911
2023-03-22T12:34:22.313Z,708
2023-03-22T12:35:45.729Z,478
2023-03-22T12:37:09.125Z,326
2023-03-22T12:38:32.543Z,219
2023-03-22T12:39:55.936Z,264
2023-03-22T12:41:19.354Z,213
2023-03-22T12:42:42.766Z,298
2023-03-22T12:44:06.167Z,376
2023-03-22T12:45:28.587Z,495
2023-03-22T12:46:51.991Z,725
2023-03-22T12:48:15.416Z,736
2023-03-22T12:49:38.827Z,961
2023-03-22T12:51:02.234Z,849
2023-03-22T12:52:25.629Z,388
2023-03-22T12:53:49.044Z,646
2023-03-22T12:55:12.462Z,641
2023-03-22T12:56:35.874Z,601
2023-03-22T12:57:59.276Z,253
2023-03-22T12:59:22.675Z,506
2023-03-22T13:00:46.102Z,410
2023-03-22T13:02:09.505Z,483
2023-03-22T13:03:31.931Z,770
2023-03-22T13:04:55.345Z,1164
2023-03-22T13:06:18.734Z,1119
2023-03-22T13:07:42.155Z,990
2023-03-22T13:09:05.549Z,888
2023-03-22T13:10:28.977Z,1293
2023-03-22T13:11:52.385Z,1158
2023-03-22T13:13:15.794Z,1186
2023-03-22T13:14:39.206Z,1153
2023-03-22T13:16:02.611Z,1181
2023-03-22T13:17:26.024Z,961
2023-03-22T13:18:49.423Z,590
2023-03-22T13:20:12.838Z,461
2023-03-22T13:21:35.265Z,573
2023-03-22T13:22:58.683Z,787
2023-03-22T13:24:22.078Z,776
2023-03-22T13:25:45.495Z,472
2023-03-22T13:27:08.908Z,326
2023-03-22T13:28:32.000Z,331
2023-03-22T13:29:55.707Z,253
2023-03-22T13:31:19.130Z,191
2023-03-22T13:32:42.528Z,174
2023-03-22T13:34:05.933Z,168
2023-03-22T13:35:29.344Z,151
2023-03-22T13:36:52.767Z,151
2023-03-22T13:38:16.162Z,168
2023-03-22T13:39:38.600Z,230
2023-03-22T13:41:01.994Z,264
2023-03-22T13:42:25.411Z,298
2023-03-22T13:43:48.808Z,298
2023-03-22T13:45:12.225Z,382
2023-03-22T13:46:35.625Z,331
2023-03-22T13:47:59.048Z,264
2023-03-22T13:49:22.456Z,270
2023-03-22T13:50:45.857Z,376
2023-03-22T13:52:09.263Z,472
2023-03-22T13:53:32.664Z,371
2023-03-22T13:54:56.081Z,286
2023-03-22T13:56:19.493Z,196
2023-03-22T13:57:41.907Z,180
2023-03-22T13:59:05.305Z,180
2023-03-22T14:00:28.722Z,196
2023-03-22T14:01:52.130Z,191
2023-03-22T14:03:15.549Z,174
2023-03-22T14:04:38.946Z,168
2023-03-22T14:06:02.346Z,163
2023-03-22T14:07:25.772Z,157
2023-03-22T14:08:49.171Z,157
2023-03-22T14:10:12.576Z,180
2023-03-22T14:11:35.983Z,191
2023-03-22T14:12:59.405Z,146
2023-03-22T14:14:22.815Z,140
2023-03-22T14:15:45.235Z,163
2023-03-22T14:17:08.637Z,157
2023-03-22T14:18:32.041Z,157
2023-03-22T14:19:55.465Z,157
2023-03-22T14:21:18.872Z,163
2023-03-22T14:53:15.309Z,343
2023-03-22T14:54:38.713Z,382
2023-03-22T14:56:02.124Z,292
2023-03-22T14:57:25.540Z,326
2023-03-22T14:58:48.939Z,303
2023-03-22T15:00:12.344Z,382
2023-03-22T15:01:35.749Z,388
2023-03-22T15:02:59.174Z,382
2023-03-22T15:04:22.575Z,517
2023-03-22T15:05:45.982Z,365
2023-03-22T15:07:09.402Z,286
2023-03-22T15:08:32.806Z,202
2023-03-22T15:09:55.218Z,163
2023-03-22T15:11:18.640Z,174
2023-03-22T15:12:42.044Z,225
2023-03-22T15:14:05.440Z,337
2023-03-22T15:15:28.861Z,348
2023-03-22T15:16:52.272Z,315
2023-03-22T15:18:14.703Z,230
2023-03-22T15:19:38.107Z,140
2023-03-22T15:21:01.504Z,225
2023-03-22T15:22:24.906Z,247
2023-03-22T15:23:48.332Z,219
2023-03-22T15:25:11.738Z,253
2023-03-22T15:26:35.129Z,202
2023-03-22T15:27:58.548Z,253
2023-03-22T15:29:21.951Z,399
2023-03-22T15:30:45.358Z,450
2023-03-22T15:32:08.775Z,376
2023-03-22T15:33:32.174Z,258
2023-03-22T15:34:55.580Z,163
2023-03-22T15:36:18.007Z,112
2023-03-22T15:37:41.413Z,101
2023-03-22T15:39:04.832Z,90
2023-03-22T15:40:28.246Z,90
2023-03-22T15:41:51.655Z,84
2023-03-22T15:43:15.053Z,78
2023-03-22T15:44:38.471Z,73
2023-03-22T15:46:01.872Z,67
2023-03-22T15:47:25.284Z,67
2023-03-22T15:48:48.695Z,61
2023-03-22T15:50:12.093Z,61
2023-03-22T15:51:35.511Z,56
2023-03-22T15:52:58.927Z,56
2023-03-22T15:54:21.337Z,50
2023-03-22T15:55:44.758Z,50
2023-03-22T15:57:08.155Z,50
2023-03-22T15:58:31.572Z,45
2023-03-22T15:59:54.983Z,45
2023-03-22T16:01:18.380Z,39
2023-03-22T16:02:41.790Z,39
2023-03-22T16:04:05.208Z,33
2023-03-22T16:05:28.604Z,33
2023-03-22T16:06:52.019Z,33
2023-03-22T16:08:15.438Z,33
2023-03-22T16:09:38.839Z,28
2023-03-22T16:11:02.253Z,28
2023-03-22T16:12:24.673Z,22
2023-03-22T16:13:48.095Z,22
2023-03-22T16:15:11.494Z,22
2023-03-22T16:16:34.899Z,22
2023-03-22T16:17:58.310Z,22
2023-03-22T16:19:21.726Z,16
2023-03-22T16:20:45.136Z,16
2023-03-22T16:22:08.538Z,16
2023-03-22T16:23:31.952Z,16
2023-03-22T16:24:55.364Z,16
2023-03-22T16:26:18.772Z,11
2023-03-22T16:27:42.166Z,11
2023-03-22T16:29:05.593Z,11
2023-03-22T16:30:28.021Z,16
2023-03-22T16:31:51.425Z,11
2023-03-22T16:33:14.826Z,11
2023-03-22T16:34:38.225Z,11
2023-03-22T16:36:01.638Z,11
2023-03-22T16:37:25.050Z,11
2023-03-22T16:38:48.470Z,11
2023-03-22T16:40:11.875Z,5
2023-03-22T16:41:35.281Z,5
2023-03-22T16:42:58.703Z,5
2023-03-22T16:44:22.106Z,5
2023-03-22T16:45:45.522Z,5
2023-03-22T16:47:08.915Z,5
2023-03-22T16:48:31.354Z,5
2023-03-22T16:49:54.764Z,5
2023-03-22T16:51:18.168Z,5
2023-03-22T16:52:41.571Z,5
2023-03-22T16:54:04.979Z,5
2023-03-22T16:55:28.396Z,5
2023-03-22T16:56:51.798Z,0
2023-03-22T16:58:15.206Z,0
2023-03-22T16:59:38.629Z,0
2023-03-22T17:01:02.040Z,0
2023-03-22T17:02:25.430Z,0
2023-03-22T17:03:48.861Z,0
2023-03-22T17:05:12.257Z,0
2023-03-22T17:06:34.685Z,0
2023-03-22T17:07:58.087Z,0
2023-03-22T17:09:21.500Z,0
2023-03-22T17:10:44.903Z,0
2023-03-22T17:12:08.304Z,0
2023-03-22T17:13:31.727Z,0
2023-03-22T17:14:55.129Z,0
2023-03-22T17:16:18.532Z,0
2023-03-22T17:19:05.363Z,0
2023-03-22T17:20:28.759Z,0
2023-03-22T17:21:52.172Z,0
2023-03-22T17:23:15.579Z,0
2023-03-22T17:24:38.012Z,0
2023-03-22T17:26:01.421Z,0
2023-03-22T17:27:24.829Z,0
2023-03-22T17:28:48.234Z,0
2023-03-22T17:30:11.630Z,0
2023-03-22T17:31:35.045Z,0
2023-03-22T17:32:58.444Z,0
2023-03-22T17:34:21.870Z,0
2023-03-22T17:35:45.263Z,0
2023-03-22T17:37:08.668Z,0
2023-03-22T17:38:32.073Z,0
2023-03-22T17:39:55.503Z,0
2023-03-22T17:41:18.906Z,0
2023-03-22T17:42:41.323Z,0
2023-03-22T17:44:04.739Z,0
2023-03-22T17:45:28.140Z,0
2023-03-22T17:46:51.539Z,0
2023-03-22T17:48:14.958Z,0
2023-03-22T17:49:38.406Z,0
2023-03-22T17:51:01.870Z,0
2023-03-22T17:52:25.324Z,0
2023-03-22T17:53:48.754Z,0
2023-03-22T17:55:12.223Z,0
2023-03-22T17:56:35.664Z,0
2023-03-22T17:57:59.120Z,0
2023-03-22T17:59:22.560Z,0
2023-03-22T18:00:45.043Z,0
2023-03-22T18:02:08.489Z,0
2023-03-22T18:03:31.930Z,0
2023-03-22T18:04:55.397Z,0
2023-03-22T18:06:18.844Z,0
2023-03-22T18:07:42.294Z,0
2023-03-22T18:09:05.737Z,0
2023-03-22T18:10:29.200Z,0
2023-03-22T18:11:52.635Z,0
2023-03-22T18:13:16.104Z,0
2023-03-22T18:14:39.540Z,0
2023-03-22T18:16:02.994Z,0
2023-03-22T18:17:26.439Z,0
2023-03-22T18:18:48.914Z,0
2023-03-22T18:20:12.355Z,0
2023-03-22T18:21:35.817Z,0
2023-03-22T18:22:59.262Z,0
2023-03-22T18:24:22.696Z,0
2023-03-22T18:25:46.159Z,0
2023-03-22T18:27:09.609Z,0
2023-03-22T18:28:33.054Z,0
2023-03-22T18:29:56.504Z,0
2023-03-22T18:31:19.961Z,0
2023-03-22T18:32:43.406Z,0
2023-03-22T18:34:06.855Z,0
2023-03-22T18:35:30.296Z,0
2023-03-22T18:36:52.774Z,0
2023-03-22T18:38:16.228Z,0
2023-03-22T18:39:39.680Z,0
2023-03-22T18:41:03.131Z,0
2023-03-22T18:42:26.565Z,0
2023-03-22T18:43:50.031Z,0
2023-03-22T18:45:13.473Z,0
2023-03-22T18:46:36.919Z,0
2023-03-22T18:48:00.379Z,0
2023-03-22T18:49:23.825Z,0
2023-03-22T18:50:47.273Z,0
2023-03-22T18:52:10.726Z,0
2023-03-22T18:53:34.177Z,0
2023-03-22T18:54:56.662Z,0
2023-03-22T18:56:20.110Z,0
2023-03-22T18:57:43.552Z,0
2023-03-22T18:59:07.007Z,0
2023-03-22T19:00:30.445Z,0
2023-03-22T19:01:53.904Z,0
2023-03-22T19:03:17.361Z,0
2023-03-22T19:04:40.802Z,0
2023-03-22T19:06:04.249Z,0
2023-03-22T19:07:27.707Z,0
2023-03-22T19:08:51.140Z,0
2023-03-22T19:10:14.589Z,0
2023-03-22T19:11:38.047Z,0
2023-03-22T19:13:00.519Z,0
2023-03-22T19:14:23.960Z,0
2023-03-22T19:15:47.412Z,0
2023-03-22T19:17:10.863Z,0
2023-03-22T19:18:34.299Z,0
2023-03-22T19:19:57.757Z,0
2023-03-22T19:21:21.211Z,0
2023-03-22T19:22:44.667Z,0
2023-03-22T19:24:08.111Z,0
2023-03-22T19:25:31.557Z,0
2023-03-22T19:26:55.015Z,0
2023-03-22T19:28:18.457Z,0
2023-03-22T19:29:41.921Z,0
2023-03-22T19:31:04.376Z,0
2023-03-22T19:32:27.820Z,0
2023-03-22T19:33:51.279Z,0
2023-03-22T19:35:14.724Z,0
2023-03-22T19:36:38.173Z,0
2023-03-22T19:38:01.619Z,0
2023-03-22T19:39:25.075Z,0
2023-03-22T19:40:48.531Z,0
2023-03-22T19:42:11.983Z,0
2023-03-22T19:43:35.424Z,0
2023-03-22T19:44:58.876Z,0
2023-03-22T19:46:22.313Z,0
2023-03-22T19:49:09.192Z,0
2023-03-22T19:50:31.657Z,0
2023-03-22T19:51:55.107Z,0
2023-03-22T20:07:18.411Z,0
2023-03-22T20:22:41.699Z,0
2023-03-22T20:38:04.997Z,0
2023-03-22T20:53:27.324Z,0
2023-03-22T21:08:50.605Z,0
2023-03-22T21:24:13.908Z,0
2023-03-22T21:39:37.212Z,0
2023-03-22T21:55:00.497Z,0
2023-03-22T22:10:23.794Z,0
2023-03-22T22:25:47.086Z,0
2023-03-22T22:41:10.390Z,0
2023-03-22T22:56:33.690Z,0
2023-03-22T23:11:56.979Z,0
2023-03-22T23:27:20.271Z,0
2023-03-22T23:42:43.575Z,0
2023-03-22T23:58:06.879Z,0
